createdAt,value
2023-06-08T00:02:37.810Z,6.95
2023-06-08T00:07:41.946Z,6.70
2023-06-08T00:12:45.780Z,6.75
2023-06-08T00:17:49.899Z,6.60
2023-06-08T00:22:53.101Z,6.80
2023-06-08T00:27:55.819Z,7.20
2023-06-08T00:32:59.828Z,6.63
2023-06-08T00:38:02.465Z,7.05
2023-06-08T00:43:05.233Z,7.07
2023-06-08T00:48:09.874Z,6.25
2023-06-08T00:53:13.137Z,6.50
2023-06-08T00:58:17.095Z,6.70
2023-06-08T01:03:21.629Z,6.88
2023-06-08T01:08:32.952Z,6.95
2023-06-08T01:13:41.894Z,7.40
2023-06-08T01:18:48.461Z,7.10
2023-06-08T01:24:03.564Z,7.18
2023-06-08T01:29:07.640Z,7.40
2023-06-08T01:34:11.639Z,6.90
2023-06-08T01:39:24.130Z,6.50
2023-06-08T01:44:28.319Z,7.00
2023-06-08T01:49:32.264Z,6.65
2023-06-08T01:54:36.456Z,7.18
2023-06-08T01:59:39.158Z,6.97
2023-06-08T02:04:41.845Z,7.75
2023-06-08T02:09:46.388Z,7.18
2023-06-08T02:14:49.207Z,7.35
2023-06-08T02:19:52.297Z,7.30
2023-06-08T02:24:56.954Z,7.63
2023-06-08T02:30:00.103Z,7.35
2023-06-08T02:35:02.938Z,7.82
2023-06-08T02:40:10.762Z,7.35
2023-06-08T02:45:15.941Z,7.57
2023-06-08T02:50:18.967Z,8.38
2023-06-08T02:55:23.564Z,7.60
2023-06-08T03:00:27.159Z,7.88
2023-06-08T03:05:59.815Z,7.13
2023-06-08T03:11:08.261Z,7.78
2023-06-08T03:16:14.157Z,8.40
2023-06-08T03:21:19.624Z,7.40
2023-06-08T03:26:24.534Z,7.68
2023-06-08T03:31:27.584Z,8.00
2023-06-08T03:36:35.108Z,8.38
2023-06-08T03:41:45.051Z,8.15
2023-06-08T03:46:49.589Z,7.28
2023-06-08T03:51:53.474Z,8.13
2023-06-08T03:56:57.869Z,7.55
2023-06-08T04:02:01.276Z,8.18
2023-06-08T04:07:05.928Z,7.53
2023-06-08T04:12:11.228Z,7.63
2023-06-08T04:17:14.680Z,7.82
2023-06-08T04:22:19.165Z,7.50
2023-06-08T04:27:26.940Z,6.80
2023-06-08T04:32:29.830Z,6.47
2023-06-08T04:37:33.207Z,6.20
2023-06-08T04:42:40.504Z,6.85
2023-06-08T04:47:44.782Z,7.10
2023-06-08T04:52:48.133Z,5.95
2023-06-08T04:57:52.206Z,5.93
2023-06-08T05:02:54.993Z,6.65
2023-06-08T05:07:57.737Z,6.53
2023-06-08T05:13:02.394Z,6.53
2023-06-08T05:18:05.574Z,6.05
2023-06-08T05:23:08.300Z,6.93
2023-06-08T05:28:12.318Z,6.30
2023-06-08T05:33:15.053Z,6.65
2023-06-08T05:38:17.832Z,5.82
2023-06-08T05:43:21.765Z,5.55
2023-06-08T05:48:24.582Z,5.90
2023-06-08T05:53:27.316Z,6.15
2023-06-08T05:58:48.144Z,6.07
2023-06-08T06:03:52.048Z,6.03
2023-06-08T06:08:54.919Z,6.25
2023-06-08T06:14:00.061Z,5.85
2023-06-08T06:19:03.205Z,6.25
2023-06-08T06:24:06.868Z,5.82
2023-06-08T06:29:11.337Z,5.55
2023-06-08T06:34:14.030Z,5.93
2023-06-08T06:39:16.961Z,5.55
2023-06-08T06:44:21.074Z,5.28
2023-06-08T06:49:23.853Z,5.95
2023-06-08T06:54:26.485Z,5.78
2023-06-08T06:59:30.541Z,5.43
2023-06-08T07:04:34.056Z,5.30
2023-06-08T07:09:36.984Z,5.65
2023-06-08T07:14:41.080Z,5.97
2023-06-08T07:19:43.858Z,5.40
2023-06-08T07:25:10.760Z,5.88
2023-06-08T07:30:13.194Z,5.22
2023-06-08T07:35:15.906Z,7.10
2023-06-08T07:40:19.672Z,10.45
2023-06-08T07:45:23.692Z,11.70
2023-06-08T07:50:26.405Z,11.60
2023-06-08T07:55:29.052Z,11.40
2023-06-08T08:00:33.158Z,10.32
2023-06-08T08:05:35.859Z,9.90
2023-06-08T08:10:38.843Z,9.73
2023-06-08T08:15:43.014Z,9.55
2023-06-08T08:20:45.813Z,9.38
2023-06-08T08:25:48.667Z,9.25
2023-06-08T08:30:52.746Z,8.43
2023-06-08T08:35:55.537Z,8.48
2023-06-08T08:41:02.822Z,8.00
2023-06-08T08:46:07.899Z,8.13
2023-06-08T08:51:13.835Z,6.97
2023-06-08T08:56:20.801Z,7.50
2023-06-08T09:01:25.058Z,7.00
2023-06-08T09:06:29.039Z,6.47
2023-06-08T09:11:35.683Z,6.32
2023-06-08T09:16:44.689Z,6.28
2023-06-08T09:21:48.341Z,6.25
2023-06-08T09:26:53.103Z,7.00
2023-06-08T09:31:57.154Z,6.55
2023-06-08T09:37:07.416Z,6.25
2023-06-08T09:42:10.811Z,6.85
2023-06-08T09:47:24.047Z,6.22
2023-06-08T09:52:27.022Z,6.35
2023-06-08T09:57:34.768Z,6.72
2023-06-08T10:02:46.835Z,6.70
2023-06-08T10:07:50.565Z,6.45
2023-06-08T10:12:53.460Z,6.43
2023-06-08T10:17:57.784Z,6.60
2023-06-08T10:23:01.265Z,6.72
2023-06-08T10:28:08.384Z,6.78
2023-06-08T10:33:13.579Z,6.65
2023-06-08T10:38:17.389Z,6.50
2023-06-08T10:43:48.342Z,7.05
2023-06-08T10:48:49.656Z,7.10
2023-06-08T10:53:57.694Z,6.75
2023-06-08T10:59:00.631Z,6.90
2023-06-08T11:04:12.464Z,6.43
2023-06-08T11:09:22.066Z,7.13
2023-06-08T11:14:24.698Z,6.88
2023-06-08T11:19:30.885Z,6.40
2023-06-08T11:24:33.498Z,6.78
2023-06-08T11:29:36.364Z,6.55
2023-06-08T11:34:42.579Z,6.78
2023-06-08T11:39:45.294Z,7.03
2023-06-08T11:44:49.825Z,6.88
2023-06-08T11:49:54.109Z,6.88
2023-06-08T11:54:57.772Z,7.13
2023-06-08T12:00:07.239Z,7.13
2023-06-08T12:05:17.580Z,7.07
2023-06-08T12:10:20.414Z,7.15
2023-06-08T12:15:23.062Z,6.75
2023-06-08T12:20:32.016Z,7.32
2023-06-08T12:25:35.718Z,6.88
2023-06-08T12:30:38.324Z,7.18
2023-06-08T12:35:43.296Z,7.25
2023-06-08T12:40:48.656Z,7.97
2023-06-08T12:45:51.665Z,7.35
2023-06-08T12:50:58.495Z,7.97
2023-06-08T12:56:01.175Z,8.15
2023-06-08T13:01:03.857Z,7.70
2023-06-08T13:06:08.045Z,7.70
2023-06-08T13:11:10.645Z,7.75
2023-06-08T13:16:13.436Z,7.72
2023-06-08T13:21:17.499Z,7.80
2023-06-08T13:26:20.176Z,7.32
2023-06-08T13:31:22.869Z,7.30
2023-06-08T13:36:30.570Z,7.50
2023-06-08T13:41:36.407Z,7.90
2023-06-08T13:46:40.498Z,7.55
2023-06-08T13:51:45.065Z,7.30
2023-06-08T13:56:48.009Z,7.38
2023-06-08T14:01:50.777Z,7.07
2023-06-08T14:06:54.890Z,7.93
2023-06-08T14:11:57.587Z,7.60
2023-06-08T14:17:00.365Z,7.28
2023-06-08T14:22:05.781Z,7.03
2023-06-08T14:27:08.765Z,6.95
2023-06-08T14:32:11.426Z,7.55
2023-06-08T14:37:15.413Z,7.50
2023-06-08T14:42:18.067Z,6.95
2023-06-08T14:47:20.945Z,7.30
2023-06-08T14:52:24.902Z,6.93
2023-06-08T14:57:28.154Z,6.88
2023-06-08T15:02:30.781Z,7.10
2023-06-08T15:07:37.015Z,7.28
2023-06-08T15:12:39.989Z,8.13
2023-06-08T15:17:42.625Z,8.30
2023-06-08T15:22:46.709Z,9.75
2023-06-08T15:27:49.381Z,8.55
2023-06-08T15:32:52.035Z,9.05
2023-06-08T15:37:56.170Z,10.07
2023-06-08T15:42:58.848Z,10.68
2023-06-08T15:48:01.498Z,11.20
2023-06-08T15:53:05.566Z,11.32
2023-06-08T15:58:09.199Z,11.30
2023-06-08T16:03:11.873Z,11.07
2023-06-08T16:08:18.031Z,10.40
2023-06-08T16:13:20.695Z,9.48
2023-06-08T16:18:23.507Z,9.80
2023-06-08T16:23:28.208Z,9.70
2023-06-08T16:28:31.620Z,8.88
2023-06-08T16:33:34.348Z,8.50
2023-06-08T16:38:39.415Z,9.02
2023-06-08T16:43:42.926Z,8.60
2023-06-08T16:48:45.665Z,7.97
2023-06-08T16:53:49.685Z,6.85
2023-06-08T16:58:52.359Z,7.28
2023-06-08T17:03:55.076Z,6.60
2023-06-08T17:08:59.038Z,7.03
2023-06-08T17:14:01.681Z,6.43
2023-06-08T17:19:04.468Z,6.65
2023-06-08T17:24:08.910Z,6.70
2023-06-08T17:29:11.657Z,5.95
2023-06-08T17:34:14.948Z,5.80
2023-06-08T17:39:18.934Z,6.07
2023-06-08T17:44:21.605Z,6.13
2023-06-08T17:49:24.259Z,6.65
2023-06-08T17:54:28.230Z,5.82
2023-06-08T17:59:30.877Z,5.50
2023-06-08T18:04:33.560Z,6.13
2023-06-08T18:09:37.575Z,5.80
2023-06-08T18:14:40.269Z,5.68
2023-06-08T18:19:42.940Z,5.68
2023-06-08T18:24:46.906Z,5.57
2023-06-08T18:29:49.562Z,5.82
2023-06-08T18:34:52.951Z,5.55
2023-06-08T18:39:59.212Z,5.25
2023-06-08T18:45:16.531Z,5.25
2023-06-08T18:50:19.199Z,5.80
2023-06-08T18:55:23.224Z,5.25
2023-06-08T19:00:26.209Z,5.20
2023-06-08T19:05:28.894Z,4.95
2023-06-08T19:10:32.901Z,5.43
2023-06-08T19:15:35.528Z,4.72
2023-06-08T19:20:38.154Z,5.20
2023-06-08T19:25:42.138Z,4.80
2023-06-08T19:30:44.839Z,5.03
2023-06-08T19:35:47.481Z,4.43
2023-06-08T19:40:51.456Z,4.85
2023-06-08T19:45:54.228Z,4.82
2023-06-08T19:50:56.883Z,4.25
2023-06-08T19:56:00.975Z,4.75
2023-06-08T20:01:03.822Z,4.57
2023-06-08T20:06:06.673Z,24.25
2023-06-08T20:11:10.745Z,27.13
2023-06-08T20:16:13.665Z,26.13
2023-06-08T20:21:16.446Z,24.48
2023-06-08T20:26:20.524Z,23.85
2023-06-08T20:31:23.355Z,24.27
2023-06-08T20:36:26.246Z,22.65
2023-06-08T20:41:30.315Z,21.38
2023-06-08T20:46:33.387Z,20.45
2023-06-08T20:51:36.336Z,19.10
2023-06-08T20:56:40.461Z,16.58
2023-06-08T21:01:43.173Z,15.85
2023-06-08T21:06:46.301Z,14.70
2023-06-08T21:11:53.128Z,13.60
2023-06-08T21:16:56.141Z,12.63
2023-06-08T21:21:58.817Z,11.80
2023-06-08T21:27:02.809Z,10.95
2023-06-08T21:32:06.315Z,10.60
2023-06-08T21:37:08.975Z,10.00
2023-06-08T21:42:13.743Z,9.68
2023-06-08T21:47:16.449Z,9.85
2023-06-08T21:52:19.197Z,9.15
2023-06-08T21:57:23.162Z,9.02
2023-06-08T22:02:25.932Z,7.97
2023-06-08T22:07:28.721Z,8.05
2023-06-08T22:12:33.090Z,8.13
2023-06-08T22:17:35.855Z,7.32
2023-06-08T22:22:38.586Z,7.88
2023-06-08T22:27:42.802Z,7.00
2023-06-08T22:32:45.767Z,6.82
2023-06-08T22:37:48.376Z,6.90
2023-06-08T22:42:52.388Z,6.72
2023-06-08T22:47:55.139Z,6.88
2023-06-08T22:52:59.401Z,7.10
2023-06-08T22:58:03.745Z,6.63
2023-06-08T23:03:09.316Z,6.65
2023-06-08T23:08:13.751Z,6.70
2023-06-08T23:13:18.639Z,6.10
2023-06-08T23:18:25.212Z,6.22
2023-06-08T23:23:28.652Z,6.43
2023-06-08T23:28:38.084Z,6.53
2023-06-08T23:33:40.937Z,6.10
2023-06-08T23:38:43.644Z,6.30
2023-06-08T23:43:48.406Z,6.50
2023-06-08T23:48:51.097Z,6.43
2023-06-08T23:53:53.791Z,6.28
2023-06-08T23:58:57.824Z,6.45
